Timeline UpdatesTrip UpdatesNews PostsPvt PostsTravel TipsAdmin PostsConv PostsFollowed PostsChat RequestsBlog PostsPNR Posts

Disclaimer
Search
 
 
Wed Jul 30, 2014 16:39:15 ISTHomeTrainsΣChainsAtlasPNRForumGalleryNewsFAQTripsMembersLoginFeedback
No Recent News for this Train
Other Trains in the News **new
Latest...
.
Mon Feb 03, 2014 (06:12PM)
⇐ Return Journey: Train# 56914

56913/Bangalore- Hubli Fast Passenger (UnReserved)

Jan 06 2014 (1:32PM)
Change Departure Station:
Change Arrival Station:
Post a Train Travel TipPost a Train Travel Tip **new
Post a Comment/Question/Picture/VideoPost a Comment/Question/Picture/Video
Pantry/Catering
✕ NO Pantry Car
✕ NO Catering
RSA - Rake Sharing
56916-56915-56914-56911-56912-56913; Entry# 411256
Rake/Coach Composition
2 SLR, 22 Unreserved Coaches, first 11 including 1 SLR will be detached at RRB(Birur Jn) and will run to SHIMOGA TOWN(SMET)
Loco
KJM WDM2/3a WDG3a
News    PNR    Forum    Time-Table    Availability    Fare Chart    Map    Arr/Dep History    Trips    Gallery    ΣChains    X/O    Timeline    
Travel Time: 11h 45m    42 halts    Distance: 470 km    Avg Speed: 40 km/hr
Type: Passenger
Zone: SWR/South Western
Departs @ 06:30 (Avg 12m late)
Platform# 10
SMTWTFS
Bangalore City Junction/SBC 
Arrives @ 18:15 (Avg 31m late)
Platform# ???
SMTWTFS
Hubli Junction/UBL 

42 halts. 64 intermediate Stations between Bangalore City Junction and Hubli Junction

Show ALL intermediate Stations  Show Old Time-Table

#CodeStation NameX/OArrivesAvgDepartsAvgHaltPFDay#KmSpeedElevZoneAddress
1SBC»Bangalore City Junction (10)»  -06:30+121010.042903mSWRBengaluru-560023, Karnataka
2MWMMalleswaram (2)X  06:34+2:4506:35+2:451m--12.828916mSWRBengaluru, Karnataka
3YPRYesvantpur Junction (6)X  06:41+1906:42+201m--15.654919mSWRBengaluru 560022, Karnataka
4BAWChik Banavar (3)O06:51+3706:52+361m--113.657881mSWRBengaluru, Karnataka
5DBLDodbele  07:17+4407:18+441m3137.462907mSWRNational Highway 4, Karnataka
6KIATKyatsandra (4)  07:44+4207:45+421m--164.324841mSWRTumkur, Karnataka
7TKTumkur (3)  07:58+3608:00+392m--169.537823mSWRTumkur, Karnataka
8GBBGubbi (1)X  08:29+3708:30+411m1187.654780mSWRGubbi, Karnataka
9AMSAAmmasandra (1)  08:59+3809:00+381m11113.857858mSWRTumkur Dist., Karnataka
10BSNBanasandra (1)  09:06+3909:07+391m11119.574851mSWRTumkur Dist., Karnataka
11ARGPAralaguppeX  09:11+2:4009:12+2:401m--1124.446843mSWRState Highway 74, Karnataka
12RDIKardi09:19+4409:20+471m--1129.846843mSWRKaradi Cross, Karnataka
13TTRTiptur (4)  09:34+4909:35+501m--1140.648860mSWRTiptur, Karnataka
14HVLHonnavalli Road (3)O  09:47+5309:48+531m--1150.279888mSWRNational Highway 206, Karnataka
15ASKArsikere Junction (3)X  10:00+5710:15+5315m--1166.162816mSWRArsikere, Karnataka
16BVRBanavar (2)X  10:30+1:0110:31+1:011m--1181.760790mSWRNH 73, Karnataka
17VNRDevanur (2)  10:38+1:0510:39+1:061m--1188.758757mSWRDevanur Railway Station, Karnataka
18DRUKadur Junction (3)XO  10:56+1:0510:57+1:051m--1205.215774mSWRKadur, Karnataka
19RRBBirur Junction (3)11:20+5711:50+5730m--1211.160802mSWRBirur, Karnataka
20AJPAjjampur (2)  12:08+1:0412:09+1:101m--1229.259752mSWRAjjampur, Karnataka
21SHVShivani  12:20+1:1612:21+1:191m--1239.960779mSWRShivani Rd, Karnataka
22HSDHosdurga Road (1)  12:31+1:2312:32+1:241m11249.955765mSWRChitradurga Dist., Karnataka
23RGIRamgiri  12:44+1:2412:45+1:261m--1261.049705mSWRShivani Rd, Karnataka
24HLKHolalkereX  12:56+1:3012:57+1:361m--1270.046661mSWRNational Highway 13, Karnataka
25JRUChikjajur Junction (3)  13:10+1:2913:12+1:302m--1279.959677mSWRChikkajajur, Karnataka
26SLUSasaluX  13:22+1:3713:23+1:391m--1289.768660mSWRState Highway 47, Karnataka
27MYKMayakonda (2)  13:30+1:4513:31+1:461m--1297.661646mSWRState Highway 47, Karnataka
28KAGKodaganur  13:39+1:4913:40+1:491m--1305.832633mSWRState Highway 47, Karnataka
29DVGDavangere (2)  14:18+1:1114:20+1:132m--1326.031598mSWRDavanagere, Karnataka
30HRRHarihar (3)X  14:45+1:2214:50+1:275m--1338.954553mSWRHarihar, Karnataka
31CLIChalgeri (2)  15:01+1:4915:02+1:541m--1348.847574mSWRChalageri, Karnataka
32RNRRanibennur (3)X  15:19+1:4915:20+1:531m--1362.255583mSWRRanebennur, Karnataka
33DADDevargudda (2)  15:29+1:5815:30+1:591m--1370.468589mSWRDevaragudda, Karnataka
34BYDByadgi (2)  15:39+2:1015:40+2:121m--1380.744632mSWRNational Highway 4, Karnataka
35HVRHaveri (3)X  15:59+2:1316:00+2:151m--1394.848558mSWRHaveri, Karnataka
36KJGKarajgi (2)  16:09+2:1316:10+2:161m--1402.053550mSWRhaveri, Karnataka
37KVSKalsur  16:15+4:0916:16+4:091m--1406.438541mSWRNH 48, Karnataka
38SVNRSavanur (2)X  16:29+2:1316:30+2:151m--1414.657584mSWRState Highway 6, Karnataka
39YLGYalvigi (2)  16:39+2:1616:40+2:171m--1423.260621mSWRYalvigi, Karnataka
40KALSKalas Halt  16:46+4:1116:47+4:111m--1429.227663mSWRState Highway 6, Karnataka
41GDIGudgeri (2)  16:59+2:1217:00+2:161m--1434.648689mSWRGudgeri, Karnataka
42SNHSaunshi (2)  17:14+2:2217:15+2:231m--1445.936634mSWRSaunshi, Karnataka
43KNOKundgol (2)X  17:29+2:2017:30+2:211m--1454.221636mSWRKundgol, Karnataka
44UBL•Hubli Junction (5)•  18:15+31---1469.9-640mSWRHubli - 580020, Karnataka
Scroll to Top
Scroll to Bottom